Terminal Aerodrome Forecast
Issued by NWS

Home | Current Version | Previous Version | Text Only | Print | Product List | Glossary On
Versions: 1 2 3 4 5 6 7 8 9 10 11 12 13 14 15 16 17 18
000
FTUS45 KPSR 220520
TAFIPL
TAF
KIPL 220520Z 2206/2306 VRB03KT P6SM SCT200 BKN250
     FM220800 26006KT P6SM SCT180 BKN220
     FM221900 33005KT P6SM BKN250
     FM230400 27005KT P6SM FEW250=

USA.gov is the U.S. government's official web portal to all federal, state and local government web resources and services.